createdAt,value
2022-10-04T00:02:30.286Z,2.50
2022-10-04T00:05:04.376Z,2.97
2022-10-04T00:07:39.083Z,3.27
2022-10-04T00:10:19.530Z,2.60
2022-10-04T00:12:50.412Z,2.20
2022-10-04T00:15:23.624Z,3.93
2022-10-04T00:18:05.755Z,4.90
2022-10-04T00:21:03.339Z,3.47
2022-10-04T00:23:46.492Z,3.10
2022-10-04T00:26:32.030Z,2.50
2022-10-04T00:29:00.713Z,3.83
2022-10-04T00:31:30.824Z,2.90
2022-10-04T00:34:38.956Z,2.73
2022-10-04T00:37:15.431Z,2.50
2022-10-04T00:39:47.236Z,2.83
2022-10-04T00:42:47.992Z,2.67
2022-10-04T00:45:29.710Z,2.83
2022-10-04T00:48:22.585Z,3.40
2022-10-04T00:50:57.822Z,3.10
2022-10-04T00:54:08.119Z,2.60
2022-10-04T00:56:46.547Z,3.43
2022-10-04T00:59:33.498Z,2.77
2022-10-04T01:02:06.331Z,2.50
2022-10-04T01:04:43.889Z,2.30
2022-10-04T01:07:15.416Z,2.30
2022-10-04T01:09:51.866Z,3.23
2022-10-04T01:12:41.033Z,2.93
2022-10-04T01:15:16.059Z,2.97
2022-10-04T01:18:09.615Z,2.40
2022-10-04T01:20:41.543Z,3.17
2022-10-04T01:23:13.170Z,3.77
2022-10-04T01:25:50.282Z,2.27
2022-10-04T01:28:19.059Z,2.50
2022-10-04T01:30:47.941Z,2.20
2022-10-04T01:33:16.695Z,4.43
2022-10-04T01:35:45.382Z,3.00
2022-10-04T01:38:15.579Z,5.00
2022-10-04T01:40:52.761Z,11.70
2022-10-04T01:43:29.936Z,6.57
2022-10-04T01:46:05.530Z,3.80
2022-10-04T01:48:38.210Z,3.67
2022-10-04T01:51:13.236Z,4.40
2022-10-04T01:53:49.230Z,2.23
2022-10-04T01:56:20.116Z,2.00
2022-10-04T01:58:52.450Z,3.50
2022-10-04T02:01:26.758Z,3.37
2022-10-04T02:04:01.443Z,2.20
2022-10-04T02:06:31.329Z,2.50
2022-10-04T02:09:08.789Z,2.63
2022-10-04T02:11:42.435Z,2.27
2022-10-04T02:14:23.461Z,2.30
2022-10-04T02:16:54.152Z,2.07
2022-10-04T02:19:25.977Z,3.47
2022-10-04T02:21:55.176Z,3.10
2022-10-04T02:24:26.014Z,4.10
2022-10-04T02:26:55.035Z,3.83
2022-10-04T02:29:23.799Z,2.57
2022-10-04T02:32:10.712Z,3.20
2022-10-04T02:34:41.165Z,2.30
2022-10-04T02:37:10.389Z,2.83
2022-10-04T02:39:45.641Z,2.47
2022-10-04T02:42:20.223Z,2.33
2022-10-04T02:44:55.337Z,2.87
2022-10-04T02:47:29.574Z,2.43
2022-10-04T02:50:01.367Z,2.93
2022-10-04T02:52:35.462Z,5.53
2022-10-04T02:55:08.688Z,2.60
2022-10-04T02:57:37.649Z,2.57
2022-10-04T03:00:19.766Z,2.23
2022-10-04T03:03:19.080Z,2.17
2022-10-04T03:05:55.121Z,2.03
2022-10-04T03:08:24.284Z,2.37
2022-10-04T03:10:54.280Z,3.97
2022-10-04T03:13:23.077Z,3.70
2022-10-04T03:15:52.348Z,2.63
2022-10-04T03:18:22.005Z,2.53
2022-10-04T03:20:50.971Z,2.40
2022-10-04T03:23:21.304Z,2.60
2022-10-04T03:25:59.207Z,2.83
2022-10-04T03:28:29.898Z,2.80
2022-10-04T03:30:59.354Z,2.60
2022-10-04T03:33:28.935Z,2.83
2022-10-04T03:35:59.449Z,2.53
2022-10-04T03:38:29.780Z,3.10
2022-10-04T03:41:02.262Z,4.93
2022-10-04T03:43:34.450Z,2.60
2022-10-04T03:46:05.446Z,3.60
2022-10-04T03:48:37.542Z,3.87
2022-10-04T03:51:08.765Z,2.70
2022-10-04T03:53:43.634Z,3.50
2022-10-04T03:56:19.232Z,3.10
2022-10-04T03:58:48.976Z,6.50
2022-10-04T04:01:28.222Z,4.20
2022-10-04T04:04:03.339Z,2.83
2022-10-04T04:06:43.863Z,2.50
2022-10-04T04:09:21.471Z,2.43
2022-10-04T04:11:52.828Z,2.10
2022-10-04T04:14:41.007Z,2.03
2022-10-04T04:20:45.950Z,2.60
2022-10-04T04:23:24.021Z,2.10
2022-10-04T04:25:56.302Z,2.47
2022-10-04T04:28:31.890Z,2.27
2022-10-04T04:31:05.706Z,2.73
2022-10-04T04:33:44.424Z,3.07
2022-10-04T04:36:41.616Z,4.90
2022-10-04T04:39:32.904Z,2.30
2022-10-04T04:42:02.044Z,4.63
2022-10-04T04:44:32.159Z,2.73
2022-10-04T04:47:01.086Z,3.50
2022-10-04T04:49:32.827Z,3.20
2022-10-04T04:52:01.396Z,2.30
2022-10-04T04:54:30.259Z,2.17
2022-10-04T04:56:59.108Z,2.20
2022-10-04T04:59:28.877Z,4.00
2022-10-04T05:01:59.060Z,3.43
2022-10-04T05:04:28.938Z,2.90
2022-10-04T05:07:03.367Z,3.63
2022-10-04T05:09:34.378Z,5.47
2022-10-04T05:12:10.276Z,3.80
2022-10-04T05:14:41.581Z,3.77
2022-10-04T05:17:21.073Z,4.70
2022-10-04T05:19:50.647Z,3.47
2022-10-04T05:22:22.792Z,5.83
2022-10-04T05:24:59.372Z,2.90
2022-10-04T05:27:33.176Z,3.00
2022-10-04T05:30:07.405Z,3.63
2022-10-04T05:32:49.604Z,3.53
2022-10-04T05:35:19.311Z,3.13
2022-10-04T05:37:56.998Z,2.67
2022-10-04T05:40:46.543Z,2.50
2022-10-04T05:43:31.303Z,2.60
2022-10-04T05:46:18.628Z,4.20
2022-10-04T05:48:54.095Z,3.00
2022-10-04T05:51:25.148Z,3.03
2022-10-04T05:53:54.704Z,2.37
2022-10-04T05:56:58.612Z,2.27
2022-10-04T05:59:47.551Z,2.43
2022-10-04T06:02:29.452Z,2.83
2022-10-04T06:05:10.819Z,2.40
2022-10-04T06:07:43.970Z,3.90
2022-10-04T06:10:47.010Z,2.40
2022-10-04T06:13:29.269Z,2.50
2022-10-04T06:16:05.723Z,2.40
2022-10-04T06:19:00.823Z,2.43
2022-10-04T06:21:32.263Z,3.93
2022-10-04T06:24:06.844Z,2.10
2022-10-04T06:27:03.526Z,2.43
2022-10-04T06:29:38.658Z,2.40
2022-10-04T06:32:26.848Z,3.20
2022-10-04T06:35:38.057Z,2.57
2022-10-04T06:39:00.867Z,1.97
2022-10-04T06:41:46.385Z,2.37
2022-10-04T06:44:46.445Z,2.20
2022-10-04T06:47:56.059Z,2.30
2022-10-04T06:50:32.172Z,2.03
2022-10-04T06:53:16.785Z,2.77
2022-10-04T06:56:28.178Z,2.33
2022-10-04T06:59:29.193Z,2.13
2022-10-04T07:02:00.384Z,2.60
2022-10-04T07:05:08.025Z,5.70
2022-10-04T07:07:40.349Z,2.53
2022-10-04T07:10:32.405Z,2.37
2022-10-04T07:13:14.879Z,2.40
2022-10-04T07:15:50.560Z,2.67
2022-10-04T07:18:25.568Z,2.10
2022-10-04T07:21:02.451Z,5.87
2022-10-04T07:23:35.859Z,1.97
2022-10-04T07:26:07.894Z,3.33
2022-10-04T07:29:01.367Z,2.20
2022-10-04T07:31:34.550Z,2.40
2022-10-04T07:34:10.760Z,2.00
2022-10-04T07:36:46.884Z,3.30
2022-10-04T07:39:43.697Z,1.80
2022-10-04T07:42:22.425Z,1.90
2022-10-04T07:45:05.054Z,2.33
2022-10-04T07:47:35.336Z,1.70
2022-10-04T07:50:21.939Z,2.20
2022-10-04T07:53:07.107Z,2.03
2022-10-04T07:55:53.081Z,2.20
2022-10-04T07:58:35.383Z,1.90
2022-10-04T08:01:35.672Z,2.23
2022-10-04T08:04:15.655Z,1.77
2022-10-04T08:07:00.376Z,2.10
2022-10-04T08:09:44.203Z,2.73
2022-10-04T08:12:22.966Z,1.87
2022-10-04T08:15:44.292Z,3.10
2022-10-04T08:18:53.938Z,1.60
2022-10-04T08:21:32.164Z,1.80
2022-10-04T08:24:16.788Z,2.03
2022-10-04T08:27:00.640Z,2.10
2022-10-04T08:29:53.563Z,3.40
2022-10-04T08:32:34.438Z,6.50
2022-10-04T08:35:33.915Z,2.50
2022-10-04T08:38:17.265Z,1.80
2022-10-04T08:41:25.011Z,1.97
2022-10-04T08:44:17.876Z,2.13
2022-10-04T08:47:21.774Z,1.83
2022-10-04T08:50:36.274Z,2.00
2022-10-04T08:53:49.011Z,3.77
2022-10-04T08:56:25.871Z,2.30
2022-10-04T08:59:25.810Z,2.30
2022-10-04T09:02:19.613Z,2.80
2022-10-04T09:05:23.613Z,3.50
2022-10-04T09:08:24.432Z,3.73
2022-10-04T09:11:34.859Z,2.43
2022-10-04T09:14:37.685Z,2.17
2022-10-04T09:17:22.593Z,3.40
2022-10-04T09:20:13.890Z,3.03
2022-10-04T09:22:50.470Z,2.50
2022-10-04T09:25:33.452Z,2.13
2022-10-04T09:28:21.221Z,2.50
2022-10-04T09:31:30.209Z,3.30
2022-10-04T09:34:48.950Z,2.13
2022-10-04T09:37:30.518Z,2.80
2022-10-04T09:40:38.612Z,3.27
2022-10-04T09:43:50.960Z,3.63
2022-10-04T09:46:56.273Z,3.67
2022-10-04T09:49:48.042Z,2.27
2022-10-04T09:52:30.085Z,2.37
2022-10-04T09:55:25.842Z,2.40
2022-10-04T09:58:34.879Z,5.47
2022-10-04T10:01:12.976Z,4.77
2022-10-04T10:04:45.746Z,2.33
2022-10-04T10:07:39.732Z,2.40
2022-10-04T10:13:58.325Z,3.63
2022-10-04T10:16:42.610Z,3.67
2022-10-04T10:19:43.344Z,2.07
2022-10-04T10:22:29.087Z,2.57
2022-10-04T10:25:14.203Z,2.30
2022-10-04T10:28:17.214Z,3.10
2022-10-04T10:31:09.310Z,2.20
2022-10-04T10:34:15.156Z,2.37
2022-10-04T10:37:18.989Z,2.67
2022-10-04T10:40:29.004Z,3.53
2022-10-04T10:43:21.235Z,4.40
2022-10-04T10:46:03.536Z,2.40
2022-10-04T10:48:54.220Z,2.30
2022-10-04T10:51:42.470Z,2.33
2022-10-04T10:54:53.708Z,2.30
2022-10-04T10:57:49.378Z,2.43
2022-10-04T11:00:23.151Z,2.50
2022-10-04T11:03:33.285Z,2.40
2022-10-04T11:06:39.612Z,2.10
2022-10-04T11:09:33.616Z,2.20
2022-10-04T11:12:39.289Z,1.93
2022-10-04T11:15:43.134Z,2.63
2022-10-04T11:19:00.372Z,2.53
2022-10-04T11:22:09.682Z,3.33
2022-10-04T11:25:14.776Z,4.50
2022-10-04T11:28:13.949Z,3.10
2022-10-04T11:31:14.673Z,2.40
2022-10-04T11:33:57.960Z,2.67
2022-10-04T11:36:39.182Z,2.40
2022-10-04T11:39:36.487Z,3.43
2022-10-04T11:42:18.788Z,5.00
2022-10-04T11:45:15.359Z,2.70
2022-10-04T11:47:53.529Z,2.30
2022-10-04T11:50:40.037Z,2.43
2022-10-04T11:53:40.591Z,2.47
2022-10-04T11:56:34.415Z,2.27
2022-10-04T11:59:19.541Z,2.17
2022-10-04T12:02:33.925Z,2.33
2022-10-04T12:05:35.304Z,2.23
2022-10-04T12:08:20.112Z,2.40
2022-10-04T12:11:13.110Z,2.53
2022-10-04T12:13:57.694Z,2.87
2022-10-04T12:16:57.744Z,2.30
2022-10-04T12:23:03.445Z,2.70
2022-10-04T12:25:54.935Z,2.77
2022-10-04T12:28:56.757Z,2.60
2022-10-04T12:31:30.178Z,2.20
2022-10-04T12:34:06.627Z,2.70
2022-10-04T12:36:49.651Z,2.60
2022-10-04T12:39:45.980Z,2.70
2022-10-04T12:42:29.255Z,3.70
2022-10-04T12:45:28.577Z,2.27
2022-10-04T12:48:11.298Z,2.47
2022-10-04T12:50:54.282Z,2.43
2022-10-04T12:53:34.804Z,4.93
2022-10-04T12:56:13.432Z,2.60
2022-10-04T12:58:57.486Z,3.27
2022-10-04T13:01:34.527Z,2.87
2022-10-04T13:04:18.543Z,2.60
2022-10-04T13:07:31.905Z,2.83
2022-10-04T13:10:24.619Z,3.03
2022-10-04T13:13:42.675Z,2.60
2022-10-04T13:19:18.525Z,2.93
2022-10-04T13:22:32.112Z,2.50
2022-10-04T13:25:23.738Z,2.90
2022-10-04T13:28:01.702Z,2.93
2022-10-04T13:30:38.924Z,3.13
2022-10-04T13:33:18.292Z,3.57
2022-10-04T13:35:55.967Z,3.97
2022-10-04T13:39:07.351Z,9.47
2022-10-04T13:41:57.617Z,4.87
2022-10-04T13:44:44.200Z,5.43
2022-10-04T13:47:31.500Z,3.80
2022-10-04T13:50:14.383Z,3.17
2022-10-04T13:53:12.980Z,4.63
2022-10-04T13:56:05.942Z,3.37
2022-10-04T13:58:46.614Z,6.50
2022-10-04T14:02:13.780Z,3.47
2022-10-04T14:05:10.258Z,5.13
2022-10-04T14:08:00.074Z,3.10
2022-10-04T14:10:48.845Z,3.53
2022-10-04T14:14:18.671Z,3.10
2022-10-04T14:17:51.866Z,3.60
2022-10-04T14:21:05.268Z,3.67
2022-10-04T14:23:54.967Z,4.67
2022-10-04T14:26:46.638Z,3.43
2022-10-04T14:29:41.682Z,3.10
2022-10-04T14:32:52.387Z,3.87
2022-10-04T14:35:25.552Z,3.67
2022-10-04T14:38:29.415Z,4.03
2022-10-04T14:41:47.011Z,4.03
2022-10-04T14:44:45.161Z,3.00
2022-10-04T14:47:49.376Z,3.20
2022-10-04T14:50:50.848Z,3.17
2022-10-04T14:53:28.792Z,3.37
2022-10-04T14:56:26.352Z,4.60
2022-10-04T14:59:06.275Z,3.20
2022-10-04T15:01:36.642Z,3.30
2022-10-04T15:04:19.979Z,3.30
2022-10-04T15:06:51.632Z,3.33
2022-10-04T15:09:43.395Z,3.70
2022-10-04T15:13:09.427Z,3.10
2022-10-04T15:15:54.373Z,3.37
2022-10-04T15:18:32.688Z,3.27
2022-10-04T15:21:07.563Z,3.77
2022-10-04T15:23:40.600Z,4.00
2022-10-04T15:26:51.312Z,4.80
2022-10-04T15:29:28.055Z,3.50
2022-10-04T15:32:07.885Z,5.47
2022-10-04T15:34:45.736Z,6.87
2022-10-04T15:37:25.633Z,4.07
2022-10-04T15:40:16.030Z,7.07
2022-10-04T15:43:18.333Z,4.77
2022-10-04T15:46:24.131Z,5.23
2022-10-04T15:49:27.848Z,8.40
2022-10-04T15:52:17.184Z,6.73
2022-10-04T15:55:25.338Z,9.27
2022-10-04T15:58:26.297Z,6.27
2022-10-04T16:01:20.499Z,6.93
2022-10-04T16:03:57.477Z,11.17
2022-10-04T16:06:30.133Z,11.97
2022-10-04T16:09:16.916Z,7.47
2022-10-04T16:12:07.257Z,7.87
2022-10-04T16:14:52.627Z,8.60
2022-10-04T16:17:53.699Z,8.17
2022-10-04T16:20:55.696Z,13.37
2022-10-04T16:23:35.352Z,17.13
2022-10-04T16:26:06.541Z,16.07
2022-10-04T16:29:00.550Z,12.93
2022-10-04T16:31:52.547Z,9.80
2022-10-04T16:34:46.173Z,6.93
2022-10-04T16:37:20.436Z,6.67
2022-10-04T16:40:04.011Z,6.03
2022-10-04T16:42:49.615Z,6.23
2022-10-04T16:45:44.482Z,5.40
2022-10-04T16:48:34.500Z,4.57
2022-10-04T16:51:40.716Z,7.03
2022-10-04T16:54:34.126Z,5.37
2022-10-04T16:57:16.777Z,5.70
2022-10-04T16:59:49.397Z,7.57
2022-10-04T17:02:38.194Z,6.00
2022-10-04T17:05:23.147Z,5.17
2022-10-04T17:08:11.424Z,5.20
2022-10-04T17:11:14.963Z,7.67
2022-10-04T17:13:56.721Z,10.20
2022-10-04T17:16:32.672Z,9.53
2022-10-04T17:19:28.454Z,6.73
2022-10-04T17:22:05.936Z,8.67
2022-10-04T17:24:52.557Z,8.03
2022-10-04T17:27:28.666Z,7.20
2022-10-04T17:30:13.748Z,6.60
2022-10-04T17:32:56.544Z,6.37
2022-10-04T17:35:55.116Z,6.40
2022-10-04T17:38:31.975Z,7.23
2022-10-04T17:41:11.072Z,9.13
2022-10-04T17:43:47.820Z,14.43
2022-10-04T17:46:22.122Z,19.23
2022-10-04T17:49:27.365Z,10.90
2022-10-04T17:55:19.553Z,11.80
2022-10-04T17:57:52.941Z,5.87
2022-10-04T18:00:25.512Z,4.67
2022-10-04T18:03:05.670Z,6.17
2022-10-04T18:05:45.550Z,5.70
2022-10-04T18:08:19.626Z,7.37
2022-10-04T18:10:51.827Z,6.23
2022-10-04T18:13:27.357Z,5.93
2022-10-04T18:16:05.336Z,6.47
2022-10-04T18:18:41.051Z,7.40
2022-10-04T18:21:23.510Z,17.17
2022-10-04T18:23:58.172Z,16.97
2022-10-04T18:26:30.151Z,15.97
2022-10-04T18:29:01.333Z,8.13
2022-10-04T18:31:44.319Z,6.87
2022-10-04T18:34:28.331Z,7.37
2022-10-04T18:37:06.952Z,5.30
2022-10-04T18:39:49.558Z,11.73
2022-10-04T18:42:23.835Z,5.13
2022-10-04T18:44:59.604Z,9.30
2022-10-04T18:47:36.010Z,7.07
2022-10-04T18:50:17.416Z,6.00
2022-10-04T18:52:58.780Z,9.60
2022-10-04T18:55:40.943Z,7.63
2022-10-04T18:58:42.238Z,6.73
2022-10-04T19:01:39.993Z,7.30
2022-10-04T19:04:18.377Z,5.10
2022-10-04T19:06:48.668Z,9.00
2022-10-04T19:09:25.254Z,7.20
2022-10-04T19:11:57.499Z,10.13
2022-10-04T19:14:33.806Z,8.80
2022-10-04T19:17:08.304Z,7.90
2022-10-04T19:19:48.611Z,6.50
2022-10-04T19:22:30.972Z,7.30
2022-10-04T19:25:22.316Z,6.03
2022-10-04T19:27:53.660Z,5.63
2022-10-04T19:30:24.178Z,6.50
2022-10-04T19:33:05.325Z,5.57
2022-10-04T19:35:53.493Z,5.97
2022-10-04T19:38:45.341Z,6.57
2022-10-04T19:41:24.946Z,5.10
2022-10-04T19:43:59.153Z,5.80
2022-10-04T19:46:41.886Z,5.20
2022-10-04T19:49:20.435Z,5.17
2022-10-04T19:51:54.708Z,7.27
2022-10-04T19:54:29.583Z,7.10
2022-10-04T19:57:02.104Z,4.80
2022-10-04T19:59:56.932Z,5.10
2022-10-04T20:02:25.765Z,4.60
2022-10-04T20:05:04.064Z,4.87
2022-10-04T20:07:35.068Z,4.53
2022-10-04T20:10:23.150Z,4.67
2022-10-04T20:13:34.265Z,5.97
2022-10-04T20:16:02.970Z,5.03
2022-10-04T20:19:00.829Z,4.63
2022-10-04T20:21:32.931Z,6.43
2022-10-04T20:24:03.659Z,5.83
2022-10-04T20:26:56.925Z,5.57
2022-10-04T20:30:07.745Z,4.97
2022-10-04T20:32:59.829Z,4.40
2022-10-04T20:36:22.744Z,4.83
2022-10-04T20:39:00.963Z,4.40
2022-10-04T20:42:20.676Z,4.80
2022-10-04T20:44:54.432Z,4.70
2022-10-04T20:47:44.492Z,5.23
2022-10-04T20:50:22.997Z,4.67
2022-10-04T20:52:54.155Z,5.27
2022-10-04T20:55:28.242Z,4.50
2022-10-04T20:58:01.635Z,4.53
2022-10-04T21:00:35.594Z,5.00
2022-10-04T21:03:15.714Z,4.67
2022-10-04T21:05:44.549Z,5.57
2022-10-04T21:08:23.734Z,7.00
2022-10-04T21:11:22.781Z,4.53
2022-10-04T21:13:58.864Z,5.03
2022-10-04T21:16:42.908Z,5.10
2022-10-04T21:19:50.916Z,5.17
2022-10-04T21:22:53.242Z,6.53
2022-10-04T21:25:32.696Z,4.70
2022-10-04T21:28:31.217Z,5.00
2022-10-04T21:31:02.699Z,5.97
2022-10-04T21:33:34.670Z,4.87
2022-10-04T21:36:03.474Z,4.30
2022-10-04T21:38:32.782Z,4.33
2022-10-04T21:41:01.243Z,7.23
2022-10-04T21:43:29.856Z,4.63
2022-10-04T21:45:58.439Z,6.33
2022-10-04T21:48:28.234Z,6.43
2022-10-04T21:50:57.144Z,4.93
2022-10-04T21:53:25.535Z,4.97
2022-10-04T21:55:54.108Z,5.20
2022-10-04T21:58:22.931Z,4.73
2022-10-04T22:00:51.746Z,4.80
2022-10-04T22:03:20.576Z,6.13
2022-10-04T22:05:50.759Z,4.90
2022-10-04T22:08:19.230Z,5.00
2022-10-04T22:10:48.547Z,4.70
2022-10-04T22:13:17.293Z,5.37
2022-10-04T22:15:45.771Z,5.03
2022-10-04T22:18:14.495Z,5.53
2022-10-04T22:20:43.039Z,6.43
2022-10-04T22:23:21.042Z,5.27
2022-10-04T22:26:15.187Z,4.83
2022-10-04T22:28:49.090Z,4.70
2022-10-04T22:31:20.390Z,6.87
2022-10-04T22:33:50.895Z,7.23
2022-10-04T22:36:21.961Z,5.27
2022-10-04T22:38:57.860Z,4.67
2022-10-04T22:41:30.217Z,4.63
2022-10-04T22:44:00.883Z,6.63
2022-10-04T22:46:36.094Z,5.80
2022-10-04T22:49:11.070Z,5.37
2022-10-04T22:51:47.748Z,5.73
2022-10-04T22:54:21.320Z,7.03
2022-10-04T22:56:50.749Z,6.97
2022-10-04T22:59:21.143Z,6.77
2022-10-04T23:01:49.951Z,7.40
2022-10-04T23:04:23.576Z,6.93
2022-10-04T23:06:53.218Z,4.90
2022-10-04T23:09:23.288Z,4.60
2022-10-04T23:11:51.872Z,5.20
2022-10-04T23:14:39.470Z,5.37
2022-10-04T23:17:22.038Z,5.40
2022-10-04T23:19:51.549Z,4.63
2022-10-04T23:22:27.615Z,6.77
2022-10-04T23:24:58.427Z,4.87
2022-10-04T23:27:27.051Z,5.13
2022-10-04T23:30:02.181Z,4.70
2022-10-04T23:32:34.807Z,5.80
2022-10-04T23:35:06.305Z,5.03
2022-10-04T23:37:35.659Z,5.90
2022-10-04T23:40:10.161Z,6.03
2022-10-04T23:42:38.854Z,5.27
2022-10-04T23:45:15.483Z,6.77
2022-10-04T23:47:44.114Z,4.53
2022-10-04T23:50:23.893Z,5.97
2022-10-04T23:52:55.367Z,5.30
2022-10-04T23:55:28.969Z,6.70
2022-10-04T23:57:58.238Z,6.73
